sensor_id;sensor_type;location;lat;lon;timestamp;P1;durP1;ratioP1;P2;durP2;ratioP2
14890;SDS011;7537;48.014;11.590;2022-12-26T00:00:25;0.79;;;0.83;;
14890;SDS011;7537;48.014;11.590;2022-12-26T00:05:54;0.54;;;0.61;;
14890;SDS011;7537;48.014;11.590;2022-12-26T00:11:21;0.93;;;0.94;;
14890;SDS011;7537;48.014;11.590;2022-12-26T00:16:49;1.08;;;1.06;;
14890;SDS011;7537;48.014;11.590;2022-12-26T00:22:19;0.88;;;0.97;;
14890;SDS011;7537;48.014;11.590;2022-12-26T00:27:47;0.84;;;0.94;;
14890;SDS011;7537;48.014;11.590;2022-12-26T00:33:14;0.76;;;0.86;;
14890;SDS011;7537;48.014;11.590;2022-12-26T00:38:43;0.92;;;1.02;;
14890;SDS011;7537;48.014;11.590;2022-12-26T00:44:12;0.97;;;1.11;;
14890;SDS011;7537;48.014;11.590;2022-12-26T00:49:43;1.48;;;0.69;;
14890;SDS011;7537;48.014;11.590;2022-12-26T00:55:10;0.63;;;0.69;;
14890;SDS011;7537;48.014;11.590;2022-12-26T01:00:37;0.61;;;0.68;;
14890;SDS011;7537;48.014;11.590;2022-12-26T01:06:05;0.74;;;0.72;;
14890;SDS011;7537;48.014;11.590;2022-12-26T01:11:32;0.63;;;0.72;;
14890;SDS011;7537;48.014;11.590;2022-12-26T01:18:09;0.63;;;0.69;;
14890;SDS011;7537;48.014;11.590;2022-12-26T01:23:38;3.69;;;1.05;;
14890;SDS011;7537;48.014;11.590;2022-12-26T01:29:07;1.11;;;1.21;;
14890;SDS011;7537;48.014;11.590;2022-12-26T01:37:59;1.33;;;1.37;;
14890;SDS011;7537;48.014;11.590;2022-12-26T01:47:00;2.46;;;1.68;;
14890;SDS011;7537;48.014;11.590;2022-12-26T01:52:29;1.16;;;1.28;;
14890;SDS011;7537;48.014;11.590;2022-12-26T01:58:02;1.22;;;1.31;;
14890;SDS011;7537;48.014;11.590;2022-12-26T02:03:31;1.29;;;1.26;;
14890;SDS011;7537;48.014;11.590;2022-12-26T02:09:25;1.27;;;1.20;;
14890;SDS011;7537;48.014;11.590;2022-12-26T02:14:52;0.74;;;0.86;;
14890;SDS011;7537;48.014;11.590;2022-12-26T02:20:22;1.24;;;0.88;;
14890;SDS011;7537;48.014;11.590;2022-12-26T02:26:02;0.98;;;0.77;;
14890;SDS011;7537;48.014;11.590;2022-12-26T02:31:59;1.21;;;0.74;;
14890;SDS011;7537;48.014;11.590;2022-12-26T02:37:37;0.60;;;0.63;;
14890;SDS011;7537;48.014;11.590;2022-12-26T02:43:10;0.62;;;0.69;;
14890;SDS011;7537;48.014;11.590;2022-12-26T02:48:42;1.54;;;1.06;;
14890;SDS011;7537;48.014;11.590;2022-12-26T02:54:14;1.01;;;1.02;;
14890;SDS011;7537;48.014;11.590;2022-12-26T02:59:47;0.87;;;0.93;;
14890;SDS011;7537;48.014;11.590;2022-12-26T03:05:19;0.62;;;0.69;;
14890;SDS011;7537;48.014;11.590;2022-12-26T03:10:49;2.01;;;1.19;;
14890;SDS011;7537;48.014;11.590;2022-12-26T03:16:17;0.66;;;0.73;;
14890;SDS011;7537;48.014;11.590;2022-12-26T03:23:05;0.73;;;0.80;;
14890;SDS011;7537;48.014;11.590;2022-12-26T03:28:41;0.71;;;0.76;;
14890;SDS011;7537;48.014;11.590;2022-12-26T03:34:09;1.01;;;1.08;;
14890;SDS011;7537;48.014;11.590;2022-12-26T03:39:39;1.29;;;1.41;;
14890;SDS011;7537;48.014;11.590;2022-12-26T03:45:11;0.94;;;0.78;;
14890;SDS011;7537;48.014;11.590;2022-12-26T03:52:11;0.73;;;0.81;;
14890;SDS011;7537;48.014;11.590;2022-12-26T03:57:41;0.93;;;0.91;;
14890;SDS011;7537;48.014;11.590;2022-12-26T04:03:13;0.69;;;0.79;;
14890;SDS011;7537;48.014;11.590;2022-12-26T04:08:44;0.98;;;1.09;;
14890;SDS011;7537;48.014;11.590;2022-12-26T04:14:17;0.54;;;0.61;;
14890;SDS011;7537;48.014;11.590;2022-12-26T04:19:50;0.72;;;0.81;;
14890;SDS011;7537;48.014;11.590;2022-12-26T04:25:20;0.50;;;0.57;;
14890;SDS011;7537;48.014;11.590;2022-12-26T04:30:50;0.97;;;0.75;;
14890;SDS011;7537;48.014;11.590;2022-12-26T04:36:22;0.97;;;0.94;;
14890;SDS011;7537;48.014;11.590;2022-12-26T04:41:51;0.75;;;0.79;;
14890;SDS011;7537;48.014;11.590;2022-12-26T04:47:19;3.62;;;1.02;;
14890;SDS011;7537;48.014;11.590;2022-12-26T04:52:52;1.16;;;0.87;;
14890;SDS011;7537;48.014;11.590;2022-12-26T04:58:19;4.18;;;1.16;;
14890;SDS011;7537;48.014;11.590;2022-12-26T05:03:46;1.29;;;0.70;;
14890;SDS011;7537;48.014;11.590;2022-12-26T05:09:14;1.11;;;1.04;;
14890;SDS011;7537;48.014;11.590;2022-12-26T05:14:44;1.44;;;1.15;;
14890;SDS011;7537;48.014;11.590;2022-12-26T05:20:12;0.53;;;0.59;;
14890;SDS011;7537;48.014;11.590;2022-12-26T05:25:41;0.93;;;0.62;;
14890;SDS011;7537;48.014;11.590;2022-12-26T05:31:13;1.24;;;1.16;;
14890;SDS011;7537;48.014;11.590;2022-12-26T05:36:41;1.94;;;0.88;;
14890;SDS011;7537;48.014;11.590;2022-12-26T05:42:10;1.10;;;0.66;;
14890;SDS011;7537;48.014;11.590;2022-12-26T05:47:39;1.23;;;0.88;;
14890;SDS011;7537;48.014;11.590;2022-12-26T05:53:14;0.64;;;0.72;;
14890;SDS011;7537;48.014;11.590;2022-12-26T05:58:43;0.86;;;0.95;;
14890;SDS011;7537;48.014;11.590;2022-12-26T06:04:11;3.02;;;0.86;;
14890;SDS011;7537;48.014;11.590;2022-12-26T06:09:38;0.64;;;0.71;;
14890;SDS011;7537;48.014;11.590;2022-12-26T06:14:56;0.68;;;0.74;;
14890;SDS011;7537;48.014;11.590;2022-12-26T06:20:24;0.80;;;0.82;;
14890;SDS011;7537;48.014;11.590;2022-12-26T06:25:54;1.93;;;0.87;;
14890;SDS011;7537;48.014;11.590;2022-12-26T06:31:23;0.51;;;0.46;;
14890;SDS011;7537;48.014;11.590;2022-12-26T06:36:51;0.57;;;0.64;;
14890;SDS011;7537;48.014;11.590;2022-12-26T06:42:18;0.89;;;0.94;;
14890;SDS011;7537;48.014;11.590;2022-12-26T06:47:45;0.68;;;0.69;;
14890;SDS011;7537;48.014;11.590;2022-12-26T06:53:16;0.51;;;0.56;;
14890;SDS011;7537;48.014;11.590;2022-12-26T06:58:44;0.80;;;0.89;;
14890;SDS011;7537;48.014;11.590;2022-12-26T07:04:12;0.87;;;0.94;;
14890;SDS011;7537;48.014;11.590;2022-12-26T07:09:40;0.83;;;0.69;;
14890;SDS011;7537;48.014;11.590;2022-12-26T07:15:08;0.51;;;0.54;;
14890;SDS011;7537;48.014;11.590;2022-12-26T07:20:36;1.19;;;0.66;;
14890;SDS011;7537;48.014;11.590;2022-12-26T07:26:05;1.66;;;1.07;;
14890;SDS011;7537;48.014;11.590;2022-12-26T07:31:32;0.54;;;0.63;;
14890;SDS011;7537;48.014;11.590;2022-12-26T07:37:01;1.09;;;0.93;;
14890;SDS011;7537;48.014;11.590;2022-12-26T07:42:28;1.20;;;1.19;;
14890;SDS011;7537;48.014;11.590;2022-12-26T07:47:56;0.92;;;0.99;;
14890;SDS011;7537;48.014;11.590;2022-12-26T07:53:28;0.81;;;0.88;;
14890;SDS011;7537;48.014;11.590;2022-12-26T07:58:55;0.84;;;0.99;;
14890;SDS011;7537;48.014;11.590;2022-12-26T08:04:23;1.14;;;1.21;;
14890;SDS011;7537;48.014;11.590;2022-12-26T08:09:52;1.42;;;1.32;;
14890;SDS011;7537;48.014;11.590;2022-12-26T08:15:22;1.23;;;1.06;;
14890;SDS011;7537;48.014;11.590;2022-12-26T08:20:50;0.84;;;0.94;;
14890;SDS011;7537;48.014;11.590;2022-12-26T08:26:17;1.03;;;1.07;;
14890;SDS011;7537;48.014;11.590;2022-12-26T08:31:45;1.48;;;1.56;;
14890;SDS011;7537;48.014;11.590;2022-12-26T08:37:27;2.76;;;2.12;;
14890;SDS011;7537;48.014;11.590;2022-12-26T08:42:55;1.29;;;1.44;;
14890;SDS011;7537;48.014;11.590;2022-12-26T08:48:23;0.97;;;1.06;;
14890;SDS011;7537;48.014;11.590;2022-12-26T08:53:58;1.20;;;1.36;;
14890;SDS011;7537;48.014;11.590;2022-12-26T08:59:26;0.95;;;1.09;;
14890;SDS011;7537;48.014;11.590;2022-12-26T09:04:53;0.87;;;0.95;;
14890;SDS011;7537;48.014;11.590;2022-12-26T09:10:20;1.19;;;1.21;;
14890;SDS011;7537;48.014;11.590;2022-12-26T09:15:54;1.21;;;1.00;;
14890;SDS011;7537;48.014;11.590;2022-12-26T09:21:21;0.82;;;0.91;;
14890;SDS011;7537;48.014;11.590;2022-12-26T09:26:48;1.31;;;1.09;;
14890;SDS011;7537;48.014;11.590;2022-12-26T09:32:32;1.32;;;1.22;;
14890;SDS011;7537;48.014;11.590;2022-12-26T09:38:31;0.81;;;0.91;;
14890;SDS011;7537;48.014;11.590;2022-12-26T09:44:02;1.03;;;1.11;;
14890;SDS011;7537;48.014;11.590;2022-12-26T09:50:51;0.71;;;0.79;;
14890;SDS011;7537;48.014;11.590;2022-12-26T09:56:55;0.78;;;0.87;;
14890;SDS011;7537;48.014;11.590;2022-12-26T10:03:16;0.53;;;0.60;;
14890;SDS011;7537;48.014;11.590;2022-12-26T10:12:38;2.42;;;1.94;;
14890;SDS011;7537;48.014;11.590;2022-12-26T10:18:12;7.29;;;6.66;;
14890;SDS011;7537;48.014;11.590;2022-12-26T10:23:42;0.76;;;1.16;;
14890;SDS011;7537;48.014;11.590;2022-12-26T10:29:13;1.16;;;1.28;;
14890;SDS011;7537;48.014;11.590;2022-12-26T10:34:53;1.20;;;1.33;;
14890;SDS011;7537;48.014;11.590;2022-12-26T10:40:21;1.14;;;1.28;;
14890;SDS011;7537;48.014;11.590;2022-12-26T10:45:53;0.80;;;0.82;;
14890;SDS011;7537;48.014;11.590;2022-12-26T10:51:25;0.67;;;0.66;;
14890;SDS011;7537;48.014;11.590;2022-12-26T10:56:53;0.61;;;0.68;;
14890;SDS011;7537;48.014;11.590;2022-12-26T11:02:22;1.14;;;1.02;;
14890;SDS011;7537;48.014;11.590;2022-12-26T11:07:51;1.11;;;1.16;;
14890;SDS011;7537;48.014;11.590;2022-12-26T11:13:20;1.16;;;1.24;;
14890;SDS011;7537;48.014;11.590;2022-12-26T11:18:48;0.80;;;0.91;;
14890;SDS011;7537;48.014;11.590;2022-12-26T11:24:18;0.83;;;0.83;;
14890;SDS011;7537;48.014;11.590;2022-12-26T11:29:46;1.31;;;1.34;;
14890;SDS011;7537;48.014;11.590;2022-12-26T11:35:23;1.04;;;1.09;;
14890;SDS011;7537;48.014;11.590;2022-12-26T11:40:52;0.64;;;0.53;;
14890;SDS011;7537;48.014;11.590;2022-12-26T11:46:19;1.26;;;1.29;;
14890;SDS011;7537;48.014;11.590;2022-12-26T11:51:47;1.20;;;1.11;;
14890;SDS011;7537;48.014;11.590;2022-12-26T11:57:17;0.68;;;0.73;;
14890;SDS011;7537;48.014;11.590;2022-12-26T12:02:45;0.92;;;0.78;;
14890;SDS011;7537;48.014;11.590;2022-12-26T12:08:19;0.87;;;0.96;;
14890;SDS011;7537;48.014;11.590;2022-12-26T12:13:57;1.02;;;1.06;;
14890;SDS011;7537;48.014;11.590;2022-12-26T12:19:28;0.81;;;0.90;;
14890;SDS011;7537;48.014;11.590;2022-12-26T12:30:52;1.02;;;1.07;;
14890;SDS011;7537;48.014;11.590;2022-12-26T12:36:27;2.01;;;1.37;;
14890;SDS011;7537;48.014;11.590;2022-12-26T12:42:02;2.31;;;1.61;;
14890;SDS011;7537;48.014;11.590;2022-12-26T12:47:35;1.80;;;1.45;;
14890;SDS011;7537;48.014;11.590;2022-12-26T12:53:08;3.46;;;1.85;;
14890;SDS011;7537;48.014;11.590;2022-12-26T12:58:40;2.43;;;1.81;;
14890;SDS011;7537;48.014;11.590;2022-12-26T13:04:13;2.61;;;2.67;;
14890;SDS011;7537;48.014;11.590;2022-12-26T13:09:42;2.12;;;2.28;;
14890;SDS011;7537;48.014;11.590;2022-12-26T13:15:14;2.48;;;2.53;;
14890;SDS011;7537;48.014;11.590;2022-12-26T13:20:37;3.50;;;2.90;;
14890;SDS011;7537;48.014;11.590;2022-12-26T13:26:07;3.27;;;3.13;;
14890;SDS011;7537;48.014;11.590;2022-12-26T13:31:36;2.98;;;3.05;;
14890;SDS011;7537;48.014;11.590;2022-12-26T13:37:13;3.89;;;3.94;;
14890;SDS011;7537;48.014;11.590;2022-12-26T13:43:19;2.96;;;3.13;;
14890;SDS011;7537;48.014;11.590;2022-12-26T13:54:33;4.53;;;3.29;;
14890;SDS011;7537;48.014;11.590;2022-12-26T14:05:48;2.91;;;3.06;;
14890;SDS011;7537;48.014;11.590;2022-12-26T14:11:23;4.31;;;3.06;;
14890;SDS011;7537;48.014;11.590;2022-12-26T14:16:53;2.97;;;3.09;;
14890;SDS011;7537;48.014;11.590;2022-12-26T14:22:23;3.04;;;3.15;;
14890;SDS011;7537;48.014;11.590;2022-12-26T14:27:54;3.04;;;2.82;;
14890;SDS011;7537;48.014;11.590;2022-12-26T14:33:25;2.70;;;2.78;;
14890;SDS011;7537;48.014;11.590;2022-12-26T14:39:05;2.91;;;2.59;;
14890;SDS011;7537;48.014;11.590;2022-12-26T14:44:43;2.53;;;2.26;;
14890;SDS011;7537;48.014;11.590;2022-12-26T14:55:56;1.83;;;1.91;;
14890;SDS011;7537;48.014;11.590;2022-12-26T15:07:18;1.40;;;1.52;;
14890;SDS011;7537;48.014;11.590;2022-12-26T15:12:57;1.10;;;1.23;;
14890;SDS011;7537;48.014;11.590;2022-12-26T15:18:49;2.90;;;1.56;;
14890;SDS011;7537;48.014;11.590;2022-12-26T15:24:23;1.73;;;1.77;;
14890;SDS011;7537;48.014;11.590;2022-12-26T15:35:45;1.57;;;1.29;;
14890;SDS011;7537;48.014;11.590;2022-12-26T15:41:21;1.54;;;1.48;;
14890;SDS011;7537;48.014;11.590;2022-12-26T15:46:56;1.79;;;1.33;;
14890;SDS011;7537;48.014;11.590;2022-12-26T15:52:31;1.22;;;1.27;;
14890;SDS011;7537;48.014;11.590;2022-12-26T15:58:04;1.77;;;0.99;;
14890;SDS011;7537;48.014;11.590;2022-12-26T16:03:33;1.20;;;0.99;;
14890;SDS011;7537;48.014;11.590;2022-12-26T16:09:07;0.95;;;0.73;;
14890;SDS011;7537;48.014;11.590;2022-12-26T16:14:37;0.54;;;0.63;;
14890;SDS011;7537;48.014;11.590;2022-12-26T16:20:15;0.42;;;0.48;;
14890;SDS011;7537;48.014;11.590;2022-12-26T16:25:46;1.24;;;0.53;;
14890;SDS011;7537;48.014;11.590;2022-12-26T16:31:17;0.44;;;0.48;;
14890;SDS011;7537;48.014;11.590;2022-12-26T16:36:45;0.35;;;0.39;;
14890;SDS011;7537;48.014;11.590;2022-12-26T16:42:26;0.60;;;0.67;;
14890;SDS011;7537;48.014;11.590;2022-12-26T16:47:54;1.05;;;0.76;;
14890;SDS011;7537;48.014;11.590;2022-12-26T16:53:22;0.56;;;0.61;;
14890;SDS011;7537;48.014;11.590;2022-12-26T16:58:53;0.94;;;0.78;;
14890;SDS011;7537;48.014;11.590;2022-12-26T17:04:22;1.52;;;1.08;;
14890;SDS011;7537;48.014;11.590;2022-12-26T17:09:50;0.77;;;0.83;;
14890;SDS011;7537;48.014;11.590;2022-12-26T17:15:20;0.81;;;0.91;;
14890;SDS011;7537;48.014;11.590;2022-12-26T17:20:49;0.75;;;0.82;;
14890;SDS011;7537;48.014;11.590;2022-12-26T17:26:21;1.09;;;1.01;;
14890;SDS011;7537;48.014;11.590;2022-12-26T17:31:50;1.44;;;0.83;;
14890;SDS011;7537;48.014;11.590;2022-12-26T17:37:19;0.45;;;0.51;;
14890;SDS011;7537;48.014;11.590;2022-12-26T17:42:51;0.52;;;0.32;;
14890;SDS011;7537;48.014;11.590;2022-12-26T17:48:19;0.59;;;0.58;;
14890;SDS011;7537;48.014;11.590;2022-12-26T17:53:47;0.59;;;0.66;;
14890;SDS011;7537;48.014;11.590;2022-12-26T17:59:15;0.57;;;0.64;;
14890;SDS011;7537;48.014;11.590;2022-12-26T18:04:43;0.39;;;0.43;;
14890;SDS011;7537;48.014;11.590;2022-12-26T18:10:15;0.29;;;0.33;;
14890;SDS011;7537;48.014;11.590;2022-12-26T18:15:43;0.76;;;0.71;;
14890;SDS011;7537;48.014;11.590;2022-12-26T18:21:12;0.69;;;0.73;;
14890;SDS011;7537;48.014;11.590;2022-12-26T18:26:39;1.93;;;0.66;;
14890;SDS011;7537;48.014;11.590;2022-12-26T18:32:10;1.25;;;1.32;;
14890;SDS011;7537;48.014;11.590;2022-12-26T18:37:40;0.72;;;0.81;;
14890;SDS011;7537;48.014;11.590;2022-12-26T18:43:12;1.15;;;1.26;;
14890;SDS011;7537;48.014;11.590;2022-12-26T18:48:39;0.48;;;0.54;;
14890;SDS011;7537;48.014;11.590;2022-12-26T18:54:08;1.75;;;1.80;;
14890;SDS011;7537;48.014;11.590;2022-12-26T18:59:35;0.67;;;0.82;;
14890;SDS011;7537;48.014;11.590;2022-12-26T19:05:03;0.62;;;0.48;;
14890;SDS011;7537;48.014;11.590;2022-12-26T19:10:33;0.18;;;0.21;;
14890;SDS011;7537;48.014;11.590;2022-12-26T19:16:01;0.16;;;0.18;;
14890;SDS011;7537;48.014;11.590;2022-12-26T19:21:28;0.37;;;0.40;;
14890;SDS011;7537;48.014;11.590;2022-12-26T19:26:55;0.55;;;0.62;;
14890;SDS011;7537;48.014;11.590;2022-12-26T19:32:22;0.28;;;0.31;;
14890;SDS011;7537;48.014;11.590;2022-12-26T19:37:50;0.36;;;0.24;;
14890;SDS011;7537;48.014;11.590;2022-12-26T19:43:22;1.36;;;0.31;;
14890;SDS011;7537;48.014;11.590;2022-12-26T19:48:49;0.42;;;0.45;;
14890;SDS011;7537;48.014;11.590;2022-12-26T19:54:17;0.63;;;0.42;;
14890;SDS011;7537;48.014;11.590;2022-12-26T19:59:44;0.18;;;0.21;;
14890;SDS011;7537;48.014;11.590;2022-12-26T20:05:12;0.38;;;0.40;;
14890;SDS011;7537;48.014;11.590;2022-12-26T20:10:39;0.11;;;0.13;;
14890;SDS011;7537;48.014;11.590;2022-12-26T20:16:10;0.30;;;0.33;;
14890;SDS011;7537;48.014;11.590;2022-12-26T20:21:37;0.28;;;0.31;;
14890;SDS011;7537;48.014;11.590;2022-12-26T20:28:04;0.53;;;0.59;;
14890;SDS011;7537;48.014;11.590;2022-12-26T20:35:05;0.26;;;0.27;;
14890;SDS011;7537;48.014;11.590;2022-12-26T20:40:35;0.39;;;0.45;;
14890;SDS011;7537;48.014;11.590;2022-12-26T20:46:05;0.47;;;0.27;;
14890;SDS011;7537;48.014;11.590;2022-12-26T20:51:38;0.18;;;0.21;;
14890;SDS011;7537;48.014;11.590;2022-12-26T20:57:05;0.17;;;0.19;;
14890;SDS011;7537;48.014;11.590;2022-12-26T21:02:33;0.22;;;0.25;;
14890;SDS011;7537;48.014;11.590;2022-12-26T21:08:31;0.72;;;0.14;;
14890;SDS011;7537;48.014;11.590;2022-12-26T21:13:59;0.46;;;0.22;;
14890;SDS011;7537;48.014;11.590;2022-12-26T21:19:11;0.94;;;0.38;;
14890;SDS011;7537;48.014;11.590;2022-12-26T21:28:44;0.11;;;0.14;;
14890;SDS011;7537;48.014;11.590;2022-12-26T21:34:14;0.23;;;0.23;;
14890;SDS011;7537;48.014;11.590;2022-12-26T21:39:42;0.26;;;0.29;;
14890;SDS011;7537;48.014;11.590;2022-12-26T21:45:53;0.68;;;0.29;;
14890;SDS011;7537;48.014;11.590;2022-12-26T21:51:24;0.55;;;0.29;;
14890;SDS011;7537;48.014;11.590;2022-12-26T21:56:53;0.72;;;0.73;;
14890;SDS011;7537;48.014;11.590;2022-12-26T22:02:23;0.73;;;0.85;;
14890;SDS011;7537;48.014;11.590;2022-12-26T22:07:52;1.09;;;0.38;;
14890;SDS011;7537;48.014;11.590;2022-12-26T22:13:23;0.51;;;0.56;;
14890;SDS011;7537;48.014;11.590;2022-12-26T22:18:51;0.35;;;0.29;;
14890;SDS011;7537;48.014;11.590;2022-12-26T22:24:20;0.52;;;0.44;;
14890;SDS011;7537;48.014;11.590;2022-12-26T22:29:48;0.39;;;0.37;;
14890;SDS011;7537;48.014;11.590;2022-12-26T22:35:16;0.65;;;0.39;;
14890;SDS011;7537;48.014;11.590;2022-12-26T22:40:55;0.86;;;0.48;;
14890;SDS011;7537;48.014;11.590;2022-12-26T22:46:26;0.42;;;0.30;;
14890;SDS011;7537;48.014;11.590;2022-12-26T22:51:54;0.16;;;0.19;;
14890;SDS011;7537;48.014;11.590;2022-12-26T22:57:21;1.38;;;0.21;;
14890;SDS011;7537;48.014;11.590;2022-12-26T23:02:48;0.18;;;0.21;;
14890;SDS011;7537;48.014;11.590;2022-12-26T23:08:18;0.59;;;0.67;;
14890;SDS011;7537;48.014;11.590;2022-12-26T23:13:48;0.48;;;0.35;;
14890;SDS011;7537;48.014;11.590;2022-12-26T23:19:30;0.35;;;0.27;;
14890;SDS011;7537;48.014;11.590;2022-12-26T23:25:34;0.19;;;0.20;;
14890;SDS011;7537;48.014;11.590;2022-12-26T23:31:15;1.02;;;0.29;;
14890;SDS011;7537;48.014;11.590;2022-12-26T23:36:43;0.45;;;0.50;;
14890;SDS011;7537;48.014;11.590;2022-12-26T23:42:10;0.38;;;0.40;;
14890;SDS011;7537;48.014;11.590;2022-12-26T23:47:40;0.20;;;0.23;;
14890;SDS011;7537;48.014;11.590;2022-12-26T23:53:07;0.54;;;0.29;;
14890;SDS011;7537;48.014;11.590;2022-12-26T23:58:34;0.17;;;0.20;;
